createdAt,value
2023-04-28T00:02:20.131Z,4.50
2023-04-28T00:04:48.118Z,4.60
2023-04-28T00:07:15.165Z,4.60
2023-04-28T00:09:42.167Z,4.60
2023-04-28T00:12:09.123Z,4.82
2023-04-28T00:14:36.131Z,4.05
2023-04-28T00:17:03.700Z,4.15
2023-04-28T00:19:30.754Z,4.55
2023-04-28T00:21:57.686Z,4.32
2023-04-28T00:24:24.594Z,4.60
2023-04-28T00:26:51.713Z,4.47
2023-04-28T00:29:18.641Z,4.10
2023-04-28T00:31:45.667Z,4.45
2023-04-28T00:34:15.075Z,4.90
2023-04-28T00:36:43.107Z,4.85
2023-04-28T00:39:10.465Z,4.57
2023-04-28T00:41:37.437Z,4.63
2023-04-28T00:44:04.551Z,5.10
2023-04-28T00:46:33.843Z,4.80
2023-04-28T00:49:00.900Z,4.32
2023-04-28T00:51:31.512Z,4.60
2023-04-28T00:53:58.635Z,4.63
2023-04-28T00:56:27.965Z,4.53
2023-04-28T00:58:54.897Z,4.50
2023-04-28T01:01:21.924Z,4.95
2023-04-28T01:03:49.548Z,4.53
2023-04-28T01:06:17.608Z,4.68
2023-04-28T01:08:48.867Z,4.45
2023-04-28T01:11:15.966Z,4.63
2023-04-28T01:13:43.032Z,4.53
2023-04-28T01:16:10.279Z,4.70
2023-04-28T01:18:37.387Z,4.63
2023-04-28T01:21:04.894Z,4.28
2023-04-28T01:23:32.170Z,4.43
2023-04-28T01:25:59.110Z,4.75
2023-04-28T01:28:26.122Z,4.40
2023-04-28T01:30:53.053Z,4.50
2023-04-28T01:33:20.183Z,4.70
2023-04-28T01:35:47.192Z,4.30
2023-04-28T01:38:14.196Z,4.55
2023-04-28T01:40:41.323Z,4.53
2023-04-28T01:43:08.267Z,4.22
2023-04-28T01:45:35.325Z,4.65
2023-04-28T01:48:02.377Z,4.57
2023-04-28T01:50:29.442Z,4.50
2023-04-28T01:52:56.453Z,4.60
2023-04-28T01:55:23.411Z,4.43
2023-04-28T01:57:50.511Z,4.60
2023-04-28T02:00:17.810Z,4.88
2023-04-28T02:02:44.879Z,4.35
2023-04-28T02:05:12.498Z,4.50
2023-04-28T02:07:39.529Z,4.45
2023-04-28T02:10:07.093Z,4.63
2023-04-28T02:12:34.321Z,4.57
2023-04-28T02:15:01.459Z,4.53
2023-04-28T02:17:30.959Z,4.70
2023-04-28T02:19:58.030Z,5.00
2023-04-28T02:22:25.308Z,4.55
2023-04-28T02:24:52.276Z,4.30
2023-04-28T02:27:19.433Z,5.00
2023-04-28T02:29:46.600Z,4.30
2023-04-28T02:32:13.548Z,4.75
2023-04-28T02:34:40.745Z,4.50
2023-04-28T02:37:07.876Z,4.70
2023-04-28T02:39:34.917Z,5.10
2023-04-28T02:42:01.863Z,4.85
2023-04-28T02:44:28.785Z,4.82
2023-04-28T02:46:55.783Z,4.75
2023-04-28T02:49:22.762Z,4.70
2023-04-28T02:51:49.658Z,4.50
2023-04-28T02:54:16.794Z,4.45
2023-04-28T02:56:43.821Z,4.93
2023-04-28T02:59:10.735Z,4.80
2023-04-28T03:01:37.766Z,4.70
2023-04-28T03:04:05.164Z,4.63
2023-04-28T03:06:32.288Z,4.50
2023-04-28T03:08:59.258Z,4.53
2023-04-28T03:11:26.470Z,4.43
2023-04-28T03:13:53.409Z,4.25
2023-04-28T03:16:20.343Z,4.40
2023-04-28T03:18:47.559Z,4.25
2023-04-28T03:21:14.535Z,4.80
2023-04-28T03:23:41.731Z,4.15
2023-04-28T03:26:08.685Z,3.95
2023-04-28T03:28:35.637Z,4.35
2023-04-28T03:31:03.236Z,4.30
2023-04-28T03:33:30.207Z,4.45
2023-04-28T03:35:57.491Z,4.10
2023-04-28T03:38:24.441Z,4.13
2023-04-28T03:40:51.382Z,4.00
2023-04-28T03:43:18.377Z,3.92
2023-04-28T03:45:45.494Z,4.03
2023-04-28T03:48:12.598Z,4.03
2023-04-28T03:50:41.306Z,3.92
2023-04-28T03:53:08.625Z,3.65
2023-04-28T03:55:35.794Z,3.78
2023-04-28T03:58:02.881Z,4.05
2023-04-28T04:00:29.832Z,3.75
2023-04-28T04:02:57.264Z,3.90
2023-04-28T04:05:24.755Z,3.95
2023-04-28T04:07:51.706Z,3.97
2023-04-28T04:10:18.807Z,4.05
2023-04-28T04:12:45.867Z,4.40
2023-04-28T04:15:12.804Z,3.67
2023-04-28T04:17:40.064Z,4.10
2023-04-28T04:20:08.020Z,3.85
2023-04-28T04:22:34.950Z,3.50
2023-04-28T04:25:02.112Z,4.15
2023-04-28T04:27:29.028Z,4.95
2023-04-28T04:29:55.971Z,5.32
2023-04-28T04:32:23.330Z,5.72
2023-04-28T04:34:50.300Z,5.35
2023-04-28T04:37:17.894Z,5.25
2023-04-28T04:39:44.815Z,5.28
2023-04-28T04:42:24.201Z,5.32
2023-04-28T04:44:52.290Z,5.40
2023-04-28T04:47:19.477Z,5.70
2023-04-28T04:49:46.398Z,6.07
2023-04-28T04:52:13.393Z,5.78
2023-04-28T04:54:40.462Z,7.60
2023-04-28T04:57:08.026Z,8.32
2023-04-28T04:59:35.049Z,13.27
2023-04-28T05:02:02.025Z,12.60
2023-04-28T05:04:29.455Z,14.60
2023-04-28T05:06:57.040Z,15.68
2023-04-28T05:09:24.211Z,15.23
2023-04-28T05:11:51.286Z,16.20
2023-04-28T05:14:18.433Z,16.88
2023-04-28T05:16:45.847Z,15.65
2023-04-28T05:19:12.949Z,13.35
2023-04-28T05:21:40.002Z,10.95
2023-04-28T05:24:07.098Z,10.35
2023-04-28T05:26:34.077Z,10.38
2023-04-28T05:29:01.307Z,9.18
2023-04-28T05:31:28.332Z,11.43
2023-04-28T05:33:55.316Z,10.70
2023-04-28T05:36:22.828Z,11.25
2023-04-28T05:38:49.808Z,10.57
2023-04-28T05:41:16.726Z,9.55
2023-04-28T05:43:43.783Z,10.20
2023-04-28T05:46:28.167Z,9.35
2023-04-28T05:48:57.045Z,8.85
2023-04-28T05:51:24.008Z,8.00
2023-04-28T05:53:51.163Z,8.07
2023-04-28T05:56:18.325Z,8.07
2023-04-28T05:58:45.409Z,7.55
2023-04-28T06:01:12.539Z,7.43
2023-04-28T06:03:43.530Z,7.45
2023-04-28T06:08:38.897Z,7.03
2023-04-28T06:11:07.024Z,6.72
2023-04-28T06:13:34.069Z,7.20
2023-04-28T06:16:01.317Z,6.50
2023-04-28T06:18:32.976Z,6.60
2023-04-28T06:21:00.198Z,6.72
2023-04-28T06:23:27.215Z,6.65
2023-04-28T06:25:54.737Z,6.53
2023-04-28T06:28:21.780Z,10.80
2023-04-28T06:30:49.840Z,14.02
2023-04-28T06:33:17.107Z,14.02
2023-04-28T06:35:44.250Z,11.93
2023-04-28T06:38:11.506Z,10.27
2023-04-28T06:40:38.592Z,9.65
2023-04-28T06:43:06.197Z,8.93
2023-04-28T06:45:33.431Z,8.27
2023-04-28T06:48:00.431Z,8.13
2023-04-28T06:50:27.687Z,7.80
2023-04-28T06:52:54.843Z,7.22
2023-04-28T06:55:21.898Z,7.40
2023-04-28T06:57:48.989Z,7.03
2023-04-28T07:00:16.552Z,7.25
2023-04-28T07:02:43.732Z,6.40
2023-04-28T07:05:10.996Z,6.53
2023-04-28T07:07:40.962Z,6.40
2023-04-28T07:10:09.009Z,6.75
2023-04-28T07:12:36.172Z,6.05
2023-04-28T07:15:03.281Z,6.32
2023-04-28T07:17:30.417Z,6.00
2023-04-28T07:19:57.438Z,5.90
2023-04-28T07:22:24.735Z,5.63
2023-04-28T07:24:51.878Z,5.47
2023-04-28T07:27:19.166Z,6.25
2023-04-28T07:29:46.321Z,5.80
2023-04-28T07:32:13.453Z,5.68
2023-04-28T07:34:40.743Z,5.55
2023-04-28T07:37:12.480Z,6.37
2023-04-28T07:39:40.940Z,5.90
2023-04-28T07:42:08.092Z,6.18
2023-04-28T07:44:35.931Z,5.40
2023-04-28T07:47:04.054Z,5.70
2023-04-28T07:49:32.059Z,5.97
2023-04-28T07:51:59.197Z,5.50
2023-04-28T07:54:26.170Z,5.95
2023-04-28T07:56:53.359Z,5.80
2023-04-28T07:59:20.715Z,5.78
2023-04-28T08:01:47.980Z,5.43
2023-04-28T08:04:15.545Z,5.80
2023-04-28T08:06:43.489Z,5.40
2023-04-28T08:09:10.705Z,5.53
2023-04-28T08:11:37.936Z,6.15
2023-04-28T08:14:04.980Z,5.75
2023-04-28T08:16:32.515Z,5.50
2023-04-28T08:19:01.037Z,5.38
2023-04-28T08:21:28.286Z,5.45
2023-04-28T08:23:55.540Z,5.43
2023-04-28T08:26:22.881Z,5.80
2023-04-28T08:28:49.969Z,5.68
2023-04-28T08:31:17.487Z,5.50
2023-04-28T08:33:46.001Z,5.25
2023-04-28T08:36:15.307Z,5.15
2023-04-28T08:38:43.378Z,5.45
2023-04-28T08:41:10.960Z,5.32
2023-04-28T08:43:38.298Z,5.28
2023-04-28T08:46:07.622Z,5.35
2023-04-28T08:48:43.412Z,5.32
2023-04-28T08:51:15.149Z,5.60
2023-04-28T08:54:11.807Z,5.25
2023-04-28T08:56:37.063Z,5.93
2023-04-28T08:59:05.941Z,5.18
2023-04-28T09:01:33.314Z,6.00
2023-04-28T09:04:04.084Z,5.82
2023-04-28T09:06:36.699Z,5.97
2023-04-28T09:09:28.377Z,5.70
2023-04-28T09:12:00.399Z,5.75
2023-04-28T09:14:33.307Z,5.78
2023-04-28T09:17:00.922Z,5.45
2023-04-28T09:19:38.681Z,5.43
2023-04-28T09:22:17.699Z,5.60
2023-04-28T09:24:53.573Z,5.15
2023-04-28T09:27:27.699Z,5.47
2023-04-28T09:29:55.167Z,5.75
2023-04-28T09:32:24.128Z,5.13
2023-04-28T09:34:54.271Z,5.80
2023-04-28T09:37:23.837Z,5.60
2023-04-28T09:39:55.444Z,5.30
2023-04-28T09:42:33.349Z,5.70
2023-04-28T09:45:03.698Z,5.20
2023-04-28T09:47:33.847Z,5.50
2023-04-28T09:50:02.640Z,5.75
2023-04-28T09:52:29.855Z,5.65
2023-04-28T09:54:57.757Z,5.60
2023-04-28T09:57:24.883Z,5.32
2023-04-28T09:59:53.852Z,5.70
2023-04-28T10:02:42.679Z,5.10
2023-04-28T10:05:10.965Z,5.88
2023-04-28T10:07:39.658Z,5.68
2023-04-28T10:10:08.636Z,5.47
2023-04-28T10:12:40.184Z,5.68
2023-04-28T10:15:10.865Z,5.80
2023-04-28T10:17:39.538Z,6.03
2023-04-28T10:20:09.197Z,5.50
2023-04-28T10:23:07.592Z,5.43
2023-04-28T10:25:37.551Z,5.68
2023-04-28T10:28:10.325Z,5.63
2023-04-28T10:30:38.772Z,5.65
2023-04-28T10:33:15.333Z,5.88
2023-04-28T10:35:48.013Z,5.80
2023-04-28T10:38:24.571Z,5.65
2023-04-28T10:40:53.164Z,5.38
2023-04-28T10:43:27.738Z,5.68
2023-04-28T10:45:57.041Z,6.25
2023-04-28T10:48:47.029Z,5.70
2023-04-28T10:51:17.050Z,5.70
2023-04-28T10:53:44.358Z,5.47
2023-04-28T10:56:22.004Z,5.90
2023-04-28T10:58:51.131Z,5.60
2023-04-28T11:01:32.595Z,5.68
2023-04-28T11:04:18.547Z,5.25
2023-04-28T11:06:47.421Z,5.43
2023-04-28T11:09:20.363Z,5.25
2023-04-28T11:12:03.603Z,5.25
2023-04-28T11:14:31.848Z,5.70
2023-04-28T11:17:02.402Z,5.28
2023-04-28T11:19:35.051Z,5.60
2023-04-28T11:22:04.720Z,5.25
2023-04-28T11:24:32.786Z,5.32
2023-04-28T11:27:00.597Z,5.50
2023-04-28T11:29:37.695Z,5.90
2023-04-28T11:32:10.055Z,5.80
2023-04-28T11:34:38.464Z,5.18
2023-04-28T11:37:08.713Z,5.55
2023-04-28T11:39:36.001Z,5.37
2023-04-28T11:42:10.909Z,5.63
2023-04-28T11:44:38.571Z,5.30
2023-04-28T11:47:06.928Z,5.10
2023-04-28T11:49:48.152Z,5.03
2023-04-28T11:52:15.653Z,5.50
2023-04-28T11:54:45.681Z,5.35
2023-04-28T11:57:20.658Z,5.18
2023-04-28T11:59:49.110Z,5.50
2023-04-28T12:02:18.148Z,4.93
2023-04-28T12:04:45.468Z,4.80
2023-04-28T12:07:15.282Z,5.18
2023-04-28T12:10:09.933Z,5.00
2023-04-28T12:12:49.864Z,4.68
2023-04-28T12:15:20.427Z,4.75
2023-04-28T12:17:48.878Z,4.70
2023-04-28T12:20:36.110Z,4.72
2023-04-28T12:23:03.232Z,4.75
2023-04-28T12:25:30.393Z,4.53
2023-04-28T12:28:03.010Z,4.32
2023-04-28T12:30:35.321Z,4.47
2023-04-28T12:33:02.762Z,4.75
2023-04-28T12:35:29.985Z,4.45
2023-04-28T12:37:59.171Z,4.50
2023-04-28T12:40:26.537Z,4.50
2023-04-28T12:42:54.082Z,4.30
2023-04-28T12:45:21.144Z,4.53
2023-04-28T12:47:48.634Z,4.47
2023-04-28T12:50:15.751Z,3.95
2023-04-28T12:52:42.775Z,3.97
2023-04-28T12:55:10.363Z,4.15
2023-04-28T12:57:39.266Z,4.00
2023-04-28T13:00:07.894Z,4.05
2023-04-28T13:02:35.437Z,3.58
2023-04-28T13:05:03.496Z,3.70
2023-04-28T13:07:30.789Z,3.67
2023-04-28T13:09:58.671Z,3.50
2023-04-28T13:12:27.183Z,3.67
2023-04-28T13:14:54.340Z,4.18
2023-04-28T13:17:21.588Z,4.00
2023-04-28T13:19:48.778Z,4.10
2023-04-28T13:22:16.241Z,4.00
2023-04-28T13:24:43.553Z,3.47
2023-04-28T13:27:11.219Z,3.83
2023-04-28T13:29:38.470Z,3.90
2023-04-28T13:32:06.788Z,3.90
2023-04-28T13:34:34.260Z,3.45
2023-04-28T13:37:01.485Z,3.45
2023-04-28T13:39:28.486Z,3.88
2023-04-28T13:41:55.670Z,3.78
2023-04-28T13:44:23.166Z,3.70
2023-04-28T13:46:50.435Z,3.28
2023-04-28T13:49:17.999Z,3.15
2023-04-28T13:51:46.098Z,3.53
2023-04-28T13:54:13.333Z,3.05
2023-04-28T13:56:40.644Z,2.92
2023-04-28T13:59:07.768Z,3.00
2023-04-28T14:01:34.926Z,2.67
2023-04-28T14:04:02.814Z,2.80
2023-04-28T14:06:31.475Z,2.97
2023-04-28T14:08:59.803Z,2.58
2023-04-28T14:11:27.626Z,2.63
2023-04-28T14:13:55.157Z,2.40
2023-04-28T14:16:22.787Z,2.70
2023-04-28T14:18:50.212Z,2.42
2023-04-28T14:21:17.242Z,2.60
2023-04-28T14:23:46.366Z,2.35
2023-04-28T14:26:13.450Z,2.58
2023-04-28T14:28:41.227Z,2.30
2023-04-28T14:31:09.434Z,2.50
2023-04-28T14:33:37.293Z,2.65
2023-04-28T14:36:05.506Z,2.60
2023-04-28T14:38:35.992Z,2.30
2023-04-28T14:43:30.976Z,2.60
2023-04-28T14:45:58.949Z,2.20
2023-04-28T14:48:29.050Z,2.15
2023-04-28T14:50:56.268Z,2.38
2023-04-28T14:53:24.072Z,2.22
2023-04-28T14:55:51.354Z,2.30
2023-04-28T14:58:18.401Z,2.30
2023-04-28T15:00:45.419Z,2.22
2023-04-28T15:03:12.970Z,2.55
2023-04-28T15:05:40.234Z,2.30
2023-04-28T15:08:07.574Z,2.83
2023-04-28T15:10:39.214Z,2.58
2023-04-28T15:13:09.613Z,2.30
2023-04-28T15:15:37.045Z,2.42
2023-04-28T15:18:04.952Z,2.17
2023-04-28T15:20:37.636Z,2.20
2023-04-28T15:23:04.996Z,6.78
2023-04-28T15:25:32.064Z,8.85
2023-04-28T15:27:59.563Z,7.82
2023-04-28T15:30:26.784Z,5.32
2023-04-28T15:32:54.105Z,5.97
2023-04-28T15:35:22.406Z,5.53
2023-04-28T15:37:52.457Z,6.07
2023-04-28T15:40:20.187Z,5.15
2023-04-28T15:42:52.492Z,4.97
2023-04-28T15:45:21.311Z,4.25
2023-04-28T15:47:52.819Z,3.95
2023-04-28T15:50:20.565Z,4.07
2023-04-28T15:52:50.349Z,3.50
2023-04-28T15:55:19.724Z,3.70
2023-04-28T15:57:48.988Z,3.30
2023-04-28T16:00:17.198Z,3.55
2023-04-28T16:02:45.452Z,3.45
2023-04-28T16:05:13.509Z,3.28
2023-04-28T16:07:44.960Z,3.25
2023-04-28T16:10:14.042Z,2.90
2023-04-28T16:12:42.563Z,3.10
2023-04-28T16:15:12.901Z,2.65
2023-04-28T16:17:41.186Z,3.17
2023-04-28T16:20:10.170Z,2.40
2023-04-28T16:22:38.074Z,2.45
2023-04-28T16:25:07.020Z,2.25
2023-04-28T16:27:34.761Z,1.98
2023-04-28T16:30:02.541Z,2.10
2023-04-28T16:32:30.115Z,2.50
2023-04-28T16:34:58.689Z,2.05
2023-04-28T16:37:26.710Z,2.28
2023-04-28T16:39:54.573Z,2.03
2023-04-28T16:42:22.855Z,2.10
2023-04-28T16:44:52.629Z,2.20
2023-04-28T16:47:20.255Z,1.80
2023-04-28T16:49:47.586Z,2.22
2023-04-28T16:52:14.864Z,1.90
2023-04-28T16:54:42.384Z,1.75
2023-04-28T16:57:09.638Z,2.03
2023-04-28T16:59:37.190Z,1.70
2023-04-28T17:02:04.494Z,1.75
2023-04-28T17:04:32.254Z,1.90
2023-04-28T17:07:00.205Z,1.80
2023-04-28T17:09:28.550Z,1.90
2023-04-28T17:11:56.064Z,1.80
2023-04-28T17:14:23.185Z,1.80
2023-04-28T17:16:50.444Z,1.90
2023-04-28T17:19:17.507Z,1.95
2023-04-28T17:21:45.571Z,2.00
2023-04-28T17:24:12.718Z,2.10
2023-04-28T17:26:39.879Z,3.42
2023-04-28T17:29:07.311Z,3.05
2023-04-28T17:31:35.707Z,6.50
2023-04-28T17:34:04.085Z,3.67
2023-04-28T17:36:33.615Z,3.85
2023-04-28T17:39:00.931Z,3.17
2023-04-28T17:41:28.170Z,2.75
2023-04-28T17:43:55.194Z,2.85
2023-04-28T17:46:22.582Z,2.80
2023-04-28T17:48:50.416Z,2.70
2023-04-28T17:51:18.066Z,2.38
2023-04-28T17:53:49.020Z,2.20
2023-04-28T17:56:16.691Z,2.42
2023-04-28T17:58:44.044Z,1.70
2023-04-28T18:01:11.098Z,1.85
2023-04-28T18:03:39.436Z,1.80
2023-04-28T18:06:08.320Z,2.45
2023-04-28T18:08:37.074Z,1.65
2023-04-28T18:11:04.681Z,2.35
2023-04-28T18:13:33.325Z,1.90
2023-04-28T18:16:01.358Z,1.42
2023-04-28T18:18:30.184Z,1.35
2023-04-28T18:20:59.680Z,1.60
2023-04-28T18:23:27.851Z,1.75
2023-04-28T18:25:55.286Z,2.08
2023-04-28T18:28:22.765Z,1.50
2023-04-28T18:30:49.848Z,2.78
2023-04-28T18:33:22.773Z,4.55
2023-04-28T18:35:59.335Z,2.65
2023-04-28T18:38:26.625Z,3.13
2023-04-28T18:40:53.887Z,3.45
2023-04-28T18:43:23.942Z,2.80
2023-04-28T18:45:51.186Z,3.30
2023-04-28T18:48:18.318Z,3.45
2023-04-28T18:50:46.782Z,3.65
2023-04-28T18:53:13.827Z,3.47
2023-04-28T18:55:41.078Z,3.50
2023-04-28T18:58:08.743Z,3.30
2023-04-28T19:00:37.355Z,3.88
2023-04-28T19:03:05.027Z,4.28
2023-04-28T19:05:32.560Z,4.30
2023-04-28T19:07:59.801Z,4.07
2023-04-28T19:10:26.985Z,5.35
2023-04-28T19:12:54.272Z,5.00
2023-04-28T19:15:21.503Z,4.15
2023-04-28T19:17:48.830Z,3.97
2023-04-28T19:20:16.608Z,3.70
2023-04-28T19:22:44.397Z,3.40
2023-04-28T19:25:12.341Z,4.05
2023-04-28T19:27:41.252Z,4.45
2023-04-28T19:30:11.558Z,6.55
2023-04-28T19:32:39.845Z,4.80
2023-04-28T19:35:08.531Z,4.05
2023-04-28T19:37:36.646Z,4.82
2023-04-28T19:40:07.699Z,4.32
2023-04-28T19:47:35.092Z,6.13
2023-04-28T19:50:02.549Z,6.00
2023-04-28T19:52:30.593Z,6.15
2023-04-28T19:54:58.015Z,5.72
2023-04-28T19:57:25.645Z,4.85
2023-04-28T19:59:53.242Z,4.75
2023-04-28T20:02:21.494Z,4.38
2023-04-28T20:04:49.689Z,4.95
2023-04-28T20:07:17.225Z,4.10
2023-04-28T20:09:48.017Z,3.92
2023-04-28T20:12:17.950Z,3.70
2023-04-28T20:14:45.462Z,3.33
2023-04-28T20:17:12.811Z,3.70
2023-04-28T20:19:40.122Z,3.58
2023-04-28T20:22:08.833Z,3.35
2023-04-28T20:24:37.804Z,2.63
2023-04-28T20:27:05.121Z,2.88
2023-04-28T20:29:35.664Z,2.42
2023-04-28T20:32:03.725Z,2.53
2023-04-28T20:34:31.949Z,1.85
2023-04-28T20:37:04.888Z,1.83
2023-04-28T20:39:32.796Z,1.67
2023-04-28T20:42:01.438Z,1.60
2023-04-28T20:44:29.547Z,1.70
2023-04-28T20:46:56.740Z,1.42
2023-04-28T20:49:24.970Z,1.45
2023-04-28T20:51:52.541Z,1.10
2023-04-28T20:54:19.937Z,1.55
2023-04-28T20:56:47.196Z,1.13
2023-04-28T20:59:14.489Z,1.27
2023-04-28T21:01:42.330Z,1.40
2023-04-28T21:04:10.529Z,1.27
2023-04-28T21:06:38.002Z,1.02
2023-04-28T21:09:05.297Z,0.93
2023-04-28T21:11:32.731Z,0.98
2023-04-28T21:14:00.328Z,1.27
2023-04-28T21:16:27.500Z,1.90
2023-04-28T21:18:55.078Z,1.20
2023-04-28T21:21:22.326Z,1.10
2023-04-28T21:23:50.137Z,2.20
2023-04-28T21:26:17.264Z,3.45
2023-04-28T21:28:44.457Z,2.33
2023-04-28T21:31:11.486Z,1.70
2023-04-28T21:33:38.636Z,1.80
2023-04-28T21:36:10.259Z,1.55
2023-04-28T21:38:38.394Z,1.33
2023-04-28T21:41:05.933Z,1.67
2023-04-28T21:43:33.864Z,1.63
2023-04-28T21:46:02.078Z,1.40
2023-04-28T21:48:29.318Z,1.05
2023-04-28T21:50:56.560Z,1.13
2023-04-28T21:53:23.842Z,1.10
2023-04-28T21:55:50.845Z,1.00
2023-04-28T21:58:17.926Z,1.33
2023-04-28T22:00:47.609Z,1.27
2023-04-28T22:03:16.020Z,1.10
2023-04-28T22:05:44.467Z,0.90
2023-04-28T22:08:11.971Z,1.35
2023-04-28T22:10:39.733Z,1.25
2023-04-28T22:13:07.003Z,0.88
2023-04-28T22:15:35.335Z,1.08
2023-04-28T22:18:02.697Z,1.10
2023-04-28T22:20:30.094Z,0.80
2023-04-28T22:22:57.988Z,0.80
2023-04-28T22:25:25.522Z,0.68
2023-04-28T22:27:52.788Z,0.70
2023-04-28T22:30:20.322Z,1.13
2023-04-28T22:32:47.795Z,0.63
2023-04-28T22:35:17.029Z,0.70
2023-04-28T22:37:44.446Z,0.80
2023-04-28T22:40:11.914Z,0.80
2023-04-28T22:42:40.520Z,0.80
2023-04-28T22:45:09.903Z,0.80
2023-04-28T22:47:38.066Z,0.80
2023-04-28T22:50:06.681Z,0.73
2023-04-28T22:52:34.578Z,0.80
2023-04-28T22:55:01.775Z,0.77
2023-04-28T22:57:29.165Z,0.52
2023-04-28T22:59:56.389Z,0.60
2023-04-28T23:02:23.803Z,0.60
2023-04-28T23:04:51.355Z,0.70
2023-04-28T23:07:18.532Z,0.60
2023-04-28T23:09:45.865Z,0.60
2023-04-28T23:12:13.010Z,0.60
2023-04-28T23:14:40.177Z,0.90
2023-04-28T23:17:07.319Z,0.70
2023-04-28T23:19:39.667Z,0.75
2023-04-28T23:22:08.114Z,0.63
2023-04-28T23:24:37.478Z,0.57
2023-04-28T23:27:05.052Z,0.70
2023-04-28T23:29:32.630Z,0.70
2023-04-28T23:32:00.060Z,0.60
2023-04-28T23:34:28.366Z,0.70
2023-04-28T23:36:55.662Z,0.50
2023-04-28T23:39:23.189Z,0.60
2023-04-28T23:41:50.330Z,0.60
2023-04-28T23:44:17.831Z,0.60
2023-04-28T23:46:44.955Z,0.70
2023-04-28T23:49:12.358Z,0.50
2023-04-28T23:51:41.305Z,0.55
2023-04-28T23:54:09.804Z,0.40
2023-04-28T23:56:36.836Z,0.50
2023-04-28T23:59:04.785Z,0.50
